sensor_id;sensor_type;location;lat;lon;timestamp;temperature;humidity
75387;DHT22;63966;47.914;22.266;2023-09-18T00:01:22;16.51;86.44
75387;DHT22;63966;47.914;22.266;2023-09-18T00:04:25;16.38;87.57
75387;DHT22;63966;47.914;22.266;2023-09-18T00:07:29;16.45;87.78
75387;DHT22;63966;47.914;22.266;2023-09-18T00:10:32;16.46;88.08
75387;DHT22;63966;47.914;22.266;2023-09-18T00:13:36;16.28;88.68
75387;DHT22;63966;47.914;22.266;2023-09-18T00:16:39;16.04;88.05
75387;DHT22;63966;47.914;22.266;2023-09-18T00:19:59;16.05;87.35
75387;DHT22;63966;47.914;22.266;2023-09-18T00:23:03;16.28;87.75
75387;DHT22;63966;47.914;22.266;2023-09-18T00:26:07;15.86;88.10
75387;DHT22;63966;47.914;22.266;2023-09-18T00:29:11;15.77;88.53
75387;DHT22;63966;47.914;22.266;2023-09-18T00:32:14;15.81;88.80
75387;DHT22;63966;47.914;22.266;2023-09-18T00:35:18;15.91;88.65
75387;DHT22;63966;47.914;22.266;2023-09-18T00:38:21;15.79;88.71
75387;DHT22;63966;47.914;22.266;2023-09-18T00:41:25;15.77;88.90
75387;DHT22;63966;47.914;22.266;2023-09-18T00:44:28;15.91;88.41
75387;DHT22;63966;47.914;22.266;2023-09-18T00:47:33;15.97;88.47
75387;DHT22;63966;47.914;22.266;2023-09-18T00:50:37;15.97;88.79
75387;DHT22;63966;47.914;22.266;2023-09-18T00:53:44;15.87;89.18
75387;DHT22;63966;47.914;22.266;2023-09-18T00:56:48;15.86;87.35
75387;DHT22;63966;47.914;22.266;2023-09-18T00:59:57;15.81;89.03
75387;DHT22;63966;47.914;22.266;2023-09-18T01:03:01;15.67;89.76
75387;DHT22;63966;47.914;22.266;2023-09-18T01:06:07;15.59;90.33
75387;DHT22;63966;47.914;22.266;2023-09-18T01:09:11;15.57;90.08
75387;DHT22;63966;47.914;22.266;2023-09-18T01:15:41;15.42;87.72
75387;DHT22;63966;47.914;22.266;2023-09-18T01:18:51;15.43;86.63
75387;DHT22;63966;47.914;22.266;2023-09-18T01:21:55;15.49;88.13
75387;DHT22;63966;47.914;22.266;2023-09-18T01:24:58;15.46;88.41
75387;DHT22;63966;47.914;22.266;2023-09-18T01:28:02;15.43;89.66
75387;DHT22;63966;47.914;22.266;2023-09-18T01:31:06;15.38;91.11
75387;DHT22;63966;47.914;22.266;2023-09-18T01:34:10;15.40;91.16
75387;DHT22;63966;47.914;22.266;2023-09-18T01:37:18;15.31;90.76
75387;DHT22;63966;47.914;22.266;2023-09-18T01:40:24;15.28;90.71
75387;DHT22;63966;47.914;22.266;2023-09-18T01:43:27;15.52;90.35
75387;DHT22;63966;47.914;22.266;2023-09-18T01:46:33;15.53;91.57
75387;DHT22;63966;47.914;22.266;2023-09-18T01:49:40;15.70;92.12
75387;DHT22;63966;47.914;22.266;2023-09-18T01:52:43;15.32;91.74
75387;DHT22;63966;47.914;22.266;2023-09-18T01:55:46;15.46;91.98
75387;DHT22;63966;47.914;22.266;2023-09-18T01:58:51;15.18;91.22
75387;DHT22;63966;47.914;22.266;2023-09-18T02:01:55;15.22;92.06
75387;DHT22;63966;47.914;22.266;2023-09-18T02:05:00;15.19;92.31
75387;DHT22;63966;47.914;22.266;2023-09-18T02:08:12;15.12;91.42
75387;DHT22;63966;47.914;22.266;2023-09-18T02:11:15;15.09;90.80
75387;DHT22;63966;47.914;22.266;2023-09-18T02:14:19;15.16;89.74
75387;DHT22;63966;47.914;22.266;2023-09-18T02:17:22;15.18;89.28
75387;DHT22;63966;47.914;22.266;2023-09-18T02:20:26;15.16;89.63
75387;DHT22;63966;47.914;22.266;2023-09-18T02:23:30;15.25;90.74
75387;DHT22;63966;47.914;22.266;2023-09-18T02:26:34;15.06;90.43
75387;DHT22;63966;47.914;22.266;2023-09-18T02:29:38;15.15;91.68
75387;DHT22;63966;47.914;22.266;2023-09-18T02:32:41;15.16;92.22
75387;DHT22;63966;47.914;22.266;2023-09-18T02:35:45;15.12;92.60
75387;DHT22;63966;47.914;22.266;2023-09-18T02:38:49;15.09;92.16
75387;DHT22;63966;47.914;22.266;2023-09-18T02:41:53;15.11;91.77
75387;DHT22;63966;47.914;22.266;2023-09-18T02:44:57;14.98;90.97
75387;DHT22;63966;47.914;22.266;2023-09-18T02:48:00;14.94;89.03
75387;DHT22;63966;47.914;22.266;2023-09-18T02:51:05;14.98;89.50
75387;DHT22;63966;47.914;22.266;2023-09-18T02:54:09;14.96;89.66
75387;DHT22;63966;47.914;22.266;2023-09-18T02:57:12;14.77;88.54
75387;DHT22;63966;47.914;22.266;2023-09-18T03:00:16;14.81;88.41
75387;DHT22;63966;47.914;22.266;2023-09-18T03:03:35;14.67;89.42
75387;DHT22;63966;47.914;22.266;2023-09-18T03:06:39;14.73;89.29
75387;DHT22;63966;47.914;22.266;2023-09-18T03:09:43;14.64;88.87
75387;DHT22;63966;47.914;22.266;2023-09-18T03:12:50;14.63;88.40
75387;DHT22;63966;47.914;22.266;2023-09-18T03:15:54;14.73;88.37
75387;DHT22;63966;47.914;22.266;2023-09-18T03:18:58;14.64;87.47
75387;DHT22;63966;47.914;22.266;2023-09-18T03:22:02;14.59;86.95
75387;DHT22;63966;47.914;22.266;2023-09-18T03:25:06;14.63;86.83
75387;DHT22;63966;47.914;22.266;2023-09-18T03:28:09;14.67;87.60
75387;DHT22;63966;47.914;22.266;2023-09-18T03:31:13;14.63;87.48
75387;DHT22;63966;47.914;22.266;2023-09-18T03:34:17;14.63;87.68
75387;DHT22;63966;47.914;22.266;2023-09-18T03:37:21;14.65;87.43
75387;DHT22;63966;47.914;22.266;2023-09-18T03:40:24;14.56;89.44
75387;DHT22;63966;47.914;22.266;2023-09-18T03:43:29;14.56;89.49
75387;DHT22;63966;47.914;22.266;2023-09-18T03:46:32;14.48;89.50
75387;DHT22;63966;47.914;22.266;2023-09-18T03:49:36;14.48;89.00
75387;DHT22;63966;47.914;22.266;2023-09-18T03:52:40;14.54;89.52
75387;DHT22;63966;47.914;22.266;2023-09-18T03:55:43;14.33;87.50
75387;DHT22;63966;47.914;22.266;2023-09-18T03:58:47;14.51;87.66
75387;DHT22;63966;47.914;22.266;2023-09-18T04:01:53;14.22;90.14
75387;DHT22;63966;47.914;22.266;2023-09-18T04:04:56;13.85;90.74
75387;DHT22;63966;47.914;22.266;2023-09-18T04:08:00;13.98;91.32
75387;DHT22;63966;47.914;22.266;2023-09-18T04:11:03;14.22;91.54
75387;DHT22;63966;47.914;22.266;2023-09-18T04:14:07;14.29;91.13
75387;DHT22;63966;47.914;22.266;2023-09-18T04:17:12;14.47;91.37
75387;DHT22;63966;47.914;22.266;2023-09-18T04:20:15;14.44;91.01
75387;DHT22;63966;47.914;22.266;2023-09-18T04:23:24;14.32;91.54
75387;DHT22;63966;47.914;22.266;2023-09-18T04:26:28;14.34;92.05
75387;DHT22;63966;47.914;22.266;2023-09-18T04:29:36;14.98;90.61
75387;DHT22;63966;47.914;22.266;2023-09-18T04:32:41;14.91;90.84
75387;DHT22;63966;47.914;22.266;2023-09-18T04:35:44;14.83;91.24
75387;DHT22;63966;47.914;22.266;2023-09-18T04:38:49;14.68;91.96
75387;DHT22;63966;47.914;22.266;2023-09-18T04:41:53;14.91;91.72
75387;DHT22;63966;47.914;22.266;2023-09-18T04:44:57;15.23;90.57
75387;DHT22;63966;47.914;22.266;2023-09-18T04:48:01;15.36;90.90
75387;DHT22;63966;47.914;22.266;2023-09-18T04:51:05;15.21;90.80
75387;DHT22;63966;47.914;22.266;2023-09-18T04:54:08;15.43;89.86
75387;DHT22;63966;47.914;22.266;2023-09-18T04:57:11;15.53;90.59
75387;DHT22;63966;47.914;22.266;2023-09-18T05:00:15;15.83;90.20
75387;DHT22;63966;47.914;22.266;2023-09-18T05:03:21;15.97;89.72
75387;DHT22;63966;47.914;22.266;2023-09-18T05:06:25;15.84;90.34
75387;DHT22;63966;47.914;22.266;2023-09-18T05:09:29;15.94;90.14
75387;DHT22;63966;47.914;22.266;2023-09-18T05:12:33;16.33;88.96
75387;DHT22;63966;47.914;22.266;2023-09-18T05:15:36;16.49;88.50
75387;DHT22;63966;47.914;22.266;2023-09-18T05:18:40;16.59;88.35
75387;DHT22;63966;47.914;22.266;2023-09-18T05:21:44;16.69;87.94
75387;DHT22;63966;47.914;22.266;2023-09-18T05:24:47;16.73;88.45
75387;DHT22;63966;47.914;22.266;2023-09-18T05:27:51;16.87;88.24
75387;DHT22;63966;47.914;22.266;2023-09-18T05:30:59;17.14;87.62
75387;DHT22;63966;47.914;22.266;2023-09-18T05:34:03;17.23;86.73
75387;DHT22;63966;47.914;22.266;2023-09-18T05:37:06;17.42;86.50
75387;DHT22;63966;47.914;22.266;2023-09-18T05:40:11;17.48;86.69
75387;DHT22;63966;47.914;22.266;2023-09-18T05:43:15;17.63;86.41
75387;DHT22;63966;47.914;22.266;2023-09-18T05:46:18;17.90;85.67
75387;DHT22;63966;47.914;22.266;2023-09-18T05:49:22;18.09;85.34
75387;DHT22;63966;47.914;22.266;2023-09-18T05:52:25;18.00;85.48
75387;DHT22;63966;47.914;22.266;2023-09-18T05:55:29;18.30;85.17
75387;DHT22;63966;47.914;22.266;2023-09-18T05:58:33;20.57;78.30
75387;DHT22;63966;47.914;22.266;2023-09-18T06:01:37;20.16;78.67
75387;DHT22;63966;47.914;22.266;2023-09-18T06:04:41;20.29;77.97
75387;DHT22;63966;47.914;22.266;2023-09-18T06:07:44;20.41;77.62
75387;DHT22;63966;47.914;22.266;2023-09-18T06:10:48;20.53;77.28
75387;DHT22;63966;47.914;22.266;2023-09-18T06:13:51;20.29;78.43
75387;DHT22;63966;47.914;22.266;2023-09-18T06:16:55;20.36;78.11
75387;DHT22;63966;47.914;22.266;2023-09-18T06:19:59;20.59;77.97
75387;DHT22;63966;47.914;22.266;2023-09-18T06:23:03;20.34;78.95
75387;DHT22;63966;47.914;22.266;2023-09-18T06:26:07;20.59;77.42
75387;DHT22;63966;47.914;22.266;2023-09-18T06:29:10;21.15;75.66
75387;DHT22;63966;47.914;22.266;2023-09-18T06:32:14;21.50;74.36
75387;DHT22;63966;47.914;22.266;2023-09-18T06:35:17;21.69;73.74
75387;DHT22;63966;47.914;22.266;2023-09-18T06:38:21;20.97;76.45
75387;DHT22;63966;47.914;22.266;2023-09-18T06:41:24;21.47;74.47
75387;DHT22;63966;47.914;22.266;2023-09-18T06:44:28;22.11;72.95
75387;DHT22;63966;47.914;22.266;2023-09-18T06:47:31;22.15;71.93
75387;DHT22;63966;47.914;22.266;2023-09-18T06:50:35;22.82;70.39
75387;DHT22;63966;47.914;22.266;2023-09-18T06:53:39;23.75;67.36
75387;DHT22;63966;47.914;22.266;2023-09-18T06:56:43;23.95;66.64
75387;DHT22;63966;47.914;22.266;2023-09-18T06:59:48;24.63;64.77
75387;DHT22;63966;47.914;22.266;2023-09-18T07:02:51;24.78;64.18
75387;DHT22;63966;47.914;22.266;2023-09-18T07:05:55;24.24;63.77
75387;DHT22;63966;47.914;22.266;2023-09-18T07:08:59;25.78;61.19
75387;DHT22;63966;47.914;22.266;2023-09-18T07:12:02;28.21;53.55
75387;DHT22;63966;47.914;22.266;2023-09-18T07:15:06;28.79;52.32
75387;DHT22;63966;47.914;22.266;2023-09-18T07:18:10;30.05;48.25
75387;DHT22;63966;47.914;22.266;2023-09-18T07:21:17;30.13;46.87
75387;DHT22;63966;47.914;22.266;2023-09-18T07:24:21;29.10;48.98
75387;DHT22;63966;47.914;22.266;2023-09-18T07:27:24;30.57;46.73
75387;DHT22;63966;47.914;22.266;2023-09-18T07:30:28;31.49;43.38
75387;DHT22;63966;47.914;22.266;2023-09-18T07:33:32;31.37;43.08
75387;DHT22;63966;47.914;22.266;2023-09-18T07:36:36;32.13;42.35
75387;DHT22;63966;47.914;22.266;2023-09-18T07:39:40;31.37;44.90
75387;DHT22;63966;47.914;22.266;2023-09-18T07:42:46;31.10;44.88
75387;DHT22;63966;47.914;22.266;2023-09-18T07:45:49;30.92;45.02
75387;DHT22;63966;47.914;22.266;2023-09-18T07:48:53;29.27;47.90
75387;DHT22;63966;47.914;22.266;2023-09-18T07:51:57;29.54;47.21
75387;DHT22;63966;47.914;22.266;2023-09-18T07:55:01;28.67;48.68
75387;DHT22;63966;47.914;22.266;2023-09-18T07:58:04;29.22;47.97
75387;DHT22;63966;47.914;22.266;2023-09-18T08:01:08;29.84;45.90
75387;DHT22;63966;47.914;22.266;2023-09-18T08:04:14;30.32;44.65
75387;DHT22;63966;47.914;22.266;2023-09-18T08:07:19;30.02;45.17
75387;DHT22;63966;47.914;22.266;2023-09-18T08:10:23;29.47;46.35
75387;DHT22;63966;47.914;22.266;2023-09-18T08:13:26;29.33;47.35
75387;DHT22;63966;47.914;22.266;2023-09-18T08:16:30;28.54;47.70
75387;DHT22;63966;47.914;22.266;2023-09-18T08:19:34;28.17;48.84
75387;DHT22;63966;47.914;22.266;2023-09-18T08:22:39;28.24;49.34
75387;DHT22;63966;47.914;22.266;2023-09-18T08:25:42;27.86;49.88
75387;DHT22;63966;47.914;22.266;2023-09-18T08:28:46;27.37;51.12
75387;DHT22;63966;47.914;22.266;2023-09-18T08:31:49;27.38;51.34
75387;DHT22;63966;47.914;22.266;2023-09-18T08:34:56;27.42;50.70
75387;DHT22;63966;47.914;22.266;2023-09-18T08:38:00;26.70;52.77
75387;DHT22;63966;47.914;22.266;2023-09-18T08:41:04;26.60;53.41
75387;DHT22;63966;47.914;22.266;2023-09-18T08:44:09;26.21;54.49
75387;DHT22;63966;47.914;22.266;2023-09-18T08:47:14;26.42;54.16
75387;DHT22;63966;47.914;22.266;2023-09-18T08:50:19;26.25;54.13
75387;DHT22;63966;47.914;22.266;2023-09-18T08:53:23;26.63;54.48
75387;DHT22;63966;47.914;22.266;2023-09-18T08:56:28;26.31;55.35
75387;DHT22;63966;47.914;22.266;2023-09-18T08:59:32;26.31;52.23
75387;DHT22;63966;47.914;22.266;2023-09-18T09:02:36;26.22;54.38
75387;DHT22;63966;47.914;22.266;2023-09-18T09:05:40;26.22;54.44
75387;DHT22;63966;47.914;22.266;2023-09-18T09:08:43;25.91;54.06
75387;DHT22;63966;47.914;22.266;2023-09-18T09:11:50;26.20;53.14
75387;DHT22;63966;47.914;22.266;2023-09-18T09:15:04;26.12;53.84
75387;DHT22;63966;47.914;22.266;2023-09-18T09:18:08;26.11;54.65
75387;DHT22;63966;47.914;22.266;2023-09-18T09:21:13;26.14;54.17
75387;DHT22;63966;47.914;22.266;2023-09-18T09:24:16;26.17;54.19
75387;DHT22;63966;47.914;22.266;2023-09-18T09:27:21;25.97;54.87
75387;DHT22;63966;47.914;22.266;2023-09-18T09:30:26;26.04;54.87
75387;DHT22;63966;47.914;22.266;2023-09-18T09:33:31;25.93;55.34
75387;DHT22;63966;47.914;22.266;2023-09-18T09:36:34;25.97;55.90
75387;DHT22;63966;47.914;22.266;2023-09-18T09:39:51;26.41;54.80
75387;DHT22;63966;47.914;22.266;2023-09-18T09:42:56;26.36;54.34
75387;DHT22;63966;47.914;22.266;2023-09-18T09:46:15;26.36;55.23
75387;DHT22;63966;47.914;22.266;2023-09-18T09:49:22;26.36;55.21
75387;DHT22;63966;47.914;22.266;2023-09-18T09:52:33;26.46;55.12
75387;DHT22;63966;47.914;22.266;2023-09-18T09:55:37;25.98;56.77
75387;DHT22;63966;47.914;22.266;2023-09-18T09:58:42;26.25;55.66
75387;DHT22;63966;47.914;22.266;2023-09-18T10:01:48;26.43;55.38
75387;DHT22;63966;47.914;22.266;2023-09-18T10:04:53;26.36;55.08
75387;DHT22;63966;47.914;22.266;2023-09-18T10:08:04;26.09;56.21
75387;DHT22;63966;47.914;22.266;2023-09-18T10:11:09;26.50;55.04
75387;DHT22;63966;47.914;22.266;2023-09-18T10:14:23;26.53;54.47
75387;DHT22;63966;47.914;22.266;2023-09-18T10:17:37;26.38;55.27
75387;DHT22;63966;47.914;22.266;2023-09-18T10:20:48;26.82;54.31
75387;DHT22;63966;47.914;22.266;2023-09-18T10:24:24;26.70;55.06
75387;DHT22;63966;47.914;22.266;2023-09-18T10:27:28;27.18;53.31
75387;DHT22;63966;47.914;22.266;2023-09-18T10:30:34;27.41;52.77
75387;DHT22;63966;47.914;22.266;2023-09-18T10:33:40;27.17;53.10
75387;DHT22;63966;47.914;22.266;2023-09-18T10:36:47;27.03;53.43
75387;DHT22;63966;47.914;22.266;2023-09-18T10:39:52;27.30;53.07
75387;DHT22;63966;47.914;22.266;2023-09-18T10:42:58;27.25;52.47
75387;DHT22;63966;47.914;22.266;2023-09-18T10:46:02;27.20;53.17
75387;DHT22;63966;47.914;22.266;2023-09-18T10:49:06;27.25;52.14
75387;DHT22;63966;47.914;22.266;2023-09-18T10:52:14;27.21;52.12
75387;DHT22;63966;47.914;22.266;2023-09-18T10:55:18;27.39;52.98
75387;DHT22;63966;47.914;22.266;2023-09-18T10:58:25;27.51;53.00
75387;DHT22;63966;47.914;22.266;2023-09-18T11:01:30;27.49;51.27
75387;DHT22;63966;47.914;22.266;2023-09-18T11:04:34;26.93;53.12
75387;DHT22;63966;47.914;22.266;2023-09-18T11:07:39;26.66;53.71
75387;DHT22;63966;47.914;22.266;2023-09-18T11:11:06;26.66;53.32
75387;DHT22;63966;47.914;22.266;2023-09-18T11:14:13;26.86;52.38
75387;DHT22;63966;47.914;22.266;2023-09-18T11:17:39;26.79;53.96
75387;DHT22;63966;47.914;22.266;2023-09-18T11:20:42;27.07;53.14
75387;DHT22;63966;47.914;22.266;2023-09-18T11:23:46;26.90;52.78
75387;DHT22;63966;47.914;22.266;2023-09-18T11:27:00;26.97;53.14
75387;DHT22;63966;47.914;22.266;2023-09-18T11:30:05;26.96;53.64
75387;DHT22;63966;47.914;22.266;2023-09-18T11:33:11;26.94;52.85
75387;DHT22;63966;47.914;22.266;2023-09-18T11:36:29;26.97;52.90
75387;DHT22;63966;47.914;22.266;2023-09-18T11:39:40;27.23;52.51
75387;DHT22;63966;47.914;22.266;2023-09-18T11:43:21;27.24;51.69
75387;DHT22;63966;47.914;22.266;2023-09-18T11:46:39;27.07;52.28
75387;DHT22;63966;47.914;22.266;2023-09-18T11:49:59;27.11;52.85
75387;DHT22;63966;47.914;22.266;2023-09-18T11:53:06;26.90;53.45
75387;DHT22;63966;47.914;22.266;2023-09-18T11:56:14;27.14;52.80
75387;DHT22;63966;47.914;22.266;2023-09-18T11:59:18;27.12;53.78
75387;DHT22;63966;47.914;22.266;2023-09-18T12:02:30;27.30;53.03
75387;DHT22;63966;47.914;22.266;2023-09-18T12:05:54;27.76;51.78
75387;DHT22;63966;47.914;22.266;2023-09-18T12:08:58;27.63;52.45
75387;DHT22;63966;47.914;22.266;2023-09-18T12:12:04;28.07;50.64
75387;DHT22;63966;47.914;22.266;2023-09-18T12:15:11;28.02;51.36
75387;DHT22;63966;47.914;22.266;2023-09-18T12:18:16;27.56;51.79
75387;DHT22;63966;47.914;22.266;2023-09-18T12:21:20;27.75;51.82
75387;DHT22;63966;47.914;22.266;2023-09-18T12:24:24;27.61;50.93
75387;DHT22;63966;47.914;22.266;2023-09-18T12:27:31;27.54;51.51
75387;DHT22;63966;47.914;22.266;2023-09-18T12:30:35;27.21;51.97
75387;DHT22;63966;47.914;22.266;2023-09-18T12:33:39;27.15;52.59
75387;DHT22;63966;47.914;22.266;2023-09-18T12:36:44;27.10;51.91
75387;DHT22;63966;47.914;22.266;2023-09-18T12:39:50;27.15;51.44
75387;DHT22;63966;47.914;22.266;2023-09-18T12:42:56;27.41;51.27
75387;DHT22;63966;47.914;22.266;2023-09-18T12:46:00;27.38;50.95
75387;DHT22;63966;47.914;22.266;2023-09-18T12:49:23;27.41;51.26
75387;DHT22;63966;47.914;22.266;2023-09-18T12:52:31;27.58;51.73
75387;DHT22;63966;47.914;22.266;2023-09-18T12:55:35;27.34;51.43
75387;DHT22;63966;47.914;22.266;2023-09-18T12:58:41;27.39;50.76
75387;DHT22;63966;47.914;22.266;2023-09-18T13:02:06;27.39;51.02
75387;DHT22;63966;47.914;22.266;2023-09-18T13:05:10;27.35;50.89
75387;DHT22;63966;47.914;22.266;2023-09-18T13:08:13;27.14;52.20
75387;DHT22;63966;47.914;22.266;2023-09-18T13:11:17;27.15;52.55
75387;DHT22;63966;47.914;22.266;2023-09-18T13:14:21;27.18;52.29
75387;DHT22;63966;47.914;22.266;2023-09-18T13:17:24;26.91;52.92
75387;DHT22;63966;47.914;22.266;2023-09-18T13:20:29;26.87;53.35
75387;DHT22;63966;47.914;22.266;2023-09-18T13:23:34;26.64;53.99
75387;DHT22;63966;47.914;22.266;2023-09-18T13:26:38;26.49;54.68
75387;DHT22;63966;47.914;22.266;2023-09-18T13:29:41;26.79;54.41
75387;DHT22;63966;47.914;22.266;2023-09-18T13:32:45;26.86;54.62
75387;DHT22;63966;47.914;22.266;2023-09-18T13:35:52;26.69;53.99
75387;DHT22;63966;47.914;22.266;2023-09-18T13:38:56;26.90;53.78
75387;DHT22;63966;47.914;22.266;2023-09-18T13:42:00;26.91;52.77
75387;DHT22;63966;47.914;22.266;2023-09-18T13:45:05;26.96;53.77
75387;DHT22;63966;47.914;22.266;2023-09-18T13:48:28;26.59;54.07
75387;DHT22;63966;47.914;22.266;2023-09-18T13:51:33;26.79;52.49
75387;DHT22;63966;47.914;22.266;2023-09-18T13:54:37;26.94;52.26
75387;DHT22;63966;47.914;22.266;2023-09-18T13:57:41;27.06;52.47
75387;DHT22;63966;47.914;22.266;2023-09-18T14:00:44;26.97;51.47
75387;DHT22;63966;47.914;22.266;2023-09-18T14:09:08;26.76;52.49
75387;DHT22;63966;47.914;22.266;2023-09-18T14:12:13;26.68;52.42
75387;DHT22;63966;47.914;22.266;2023-09-18T14:15:18;26.75;52.64
75387;DHT22;63966;47.914;22.266;2023-09-18T14:18:21;26.68;52.43
75387;DHT22;63966;47.914;22.266;2023-09-18T14:21:25;26.60;52.59
75387;DHT22;63966;47.914;22.266;2023-09-18T14:24:33;26.48;52.68
75387;DHT22;63966;47.914;22.266;2023-09-18T14:27:37;26.48;52.88
75387;DHT22;63966;47.914;22.266;2023-09-18T14:30:40;26.57;52.81
75387;DHT22;63966;47.914;22.266;2023-09-18T14:33:44;26.50;53.12
75387;DHT22;63966;47.914;22.266;2023-09-18T14:36:47;26.55;53.03
75387;DHT22;63966;47.914;22.266;2023-09-18T14:39:51;26.53;52.98
75387;DHT22;63966;47.914;22.266;2023-09-18T14:42:55;26.55;52.61
75387;DHT22;63966;47.914;22.266;2023-09-18T14:45:58;26.50;52.80
75387;DHT22;63966;47.914;22.266;2023-09-18T14:49:02;26.38;53.10
75387;DHT22;63966;47.914;22.266;2023-09-18T14:52:05;26.43;53.24
75387;DHT22;63966;47.914;22.266;2023-09-18T14:55:09;26.39;52.72
75387;DHT22;63966;47.914;22.266;2023-09-18T14:58:15;26.36;51.49
75387;DHT22;63966;47.914;22.266;2023-09-18T15:01:21;26.35;52.64
75387;DHT22;63966;47.914;22.266;2023-09-18T15:04:25;26.32;52.57
75387;DHT22;63966;47.914;22.266;2023-09-18T15:07:28;26.38;53.05
75387;DHT22;63966;47.914;22.266;2023-09-18T15:10:36;26.31;53.04
75387;DHT22;63966;47.914;22.266;2023-09-18T15:13:39;26.26;53.52
75387;DHT22;63966;47.914;22.266;2023-09-18T15:16:42;26.21;54.06
75387;DHT22;63966;47.914;22.266;2023-09-18T15:19:46;26.35;53.38
75387;DHT22;63966;47.914;22.266;2023-09-18T15:22:52;26.06;54.40
75387;DHT22;63966;47.914;22.266;2023-09-18T15:25:59;26.01;54.54
75387;DHT22;63966;47.914;22.266;2023-09-18T15:29:02;25.88;55.32
75387;DHT22;63966;47.914;22.266;2023-09-18T15:32:06;25.64;56.15
75387;DHT22;63966;47.914;22.266;2023-09-18T15:35:11;25.66;56.33
75387;DHT22;63966;47.914;22.266;2023-09-18T15:38:14;25.51;56.75
75387;DHT22;63966;47.914;22.266;2023-09-18T15:41:18;25.15;57.69
75387;DHT22;63966;47.914;22.266;2023-09-18T15:44:21;25.12;57.78
75387;DHT22;63966;47.914;22.266;2023-09-18T15:47:25;25.26;57.54
75387;DHT22;63966;47.914;22.266;2023-09-18T15:50:28;24.99;58.47
75387;DHT22;63966;47.914;22.266;2023-09-18T15:53:39;24.87;58.78
75387;DHT22;63966;47.914;22.266;2023-09-18T15:56:43;25.01;58.16
75387;DHT22;63966;47.914;22.266;2023-09-18T15:59:47;24.79;59.27
75387;DHT22;63966;47.914;22.266;2023-09-18T16:02:51;24.64;59.98
75387;DHT22;63966;47.914;22.266;2023-09-18T16:05:55;24.54;60.60
75387;DHT22;63966;47.914;22.266;2023-09-18T16:08:58;24.22;61.89
75387;DHT22;63966;47.914;22.266;2023-09-18T16:12:03;24.01;62.90
75387;DHT22;63966;47.914;22.266;2023-09-18T16:15:07;23.89;63.71
75387;DHT22;63966;47.914;22.266;2023-09-18T16:18:11;23.66;64.50
75387;DHT22;63966;47.914;22.266;2023-09-18T16:21:15;23.53;64.88
75387;DHT22;63966;47.914;22.266;2023-09-18T16:24:18;23.33;65.51
75387;DHT22;63966;47.914;22.266;2023-09-18T16:27:21;23.13;65.92
75387;DHT22;63966;47.914;22.266;2023-09-18T16:30:25;22.96;66.77
75387;DHT22;63966;47.914;22.266;2023-09-18T16:33:28;22.83;67.80
75387;DHT22;63966;47.914;22.266;2023-09-18T16:36:32;22.76;68.74
75387;DHT22;63966;47.914;22.266;2023-09-18T16:39:35;22.58;69.97
75387;DHT22;63966;47.914;22.266;2023-09-18T16:42:39;22.35;71.37
75387;DHT22;63966;47.914;22.266;2023-09-18T16:45:42;22.08;72.35
75387;DHT22;63966;47.914;22.266;2023-09-18T16:48:50;21.83;73.15
75387;DHT22;63966;47.914;22.266;2023-09-18T16:51:57;21.74;73.99
75387;DHT22;63966;47.914;22.266;2023-09-18T16:55:00;21.60;73.97
75387;DHT22;63966;47.914;22.266;2023-09-18T16:58:07;21.52;74.40
75387;DHT22;63966;47.914;22.266;2023-09-18T17:01:11;21.41;74.75
75387;DHT22;63966;47.914;22.266;2023-09-18T17:04:14;21.31;74.98
75387;DHT22;63966;47.914;22.266;2023-09-18T17:07:18;21.09;75.88
75387;DHT22;63966;47.914;22.266;2023-09-18T17:10:21;20.92;76.60
75387;DHT22;63966;47.914;22.266;2023-09-18T17:13:26;20.71;77.40
75387;DHT22;63966;47.914;22.266;2023-09-18T17:16:29;20.53;78.43
75387;DHT22;63966;47.914;22.266;2023-09-18T17:19:34;20.37;79.18
75387;DHT22;63966;47.914;22.266;2023-09-18T17:22:37;20.23;79.37
75387;DHT22;63966;47.914;22.266;2023-09-18T17:25:41;20.22;79.72
75387;DHT22;63966;47.914;22.266;2023-09-18T17:28:46;20.22;80.68
75387;DHT22;63966;47.914;22.266;2023-09-18T17:31:49;20.02;80.30
75387;DHT22;63966;47.914;22.266;2023-09-18T17:34:53;19.93;80.52
75387;DHT22;63966;47.914;22.266;2023-09-18T17:37:56;19.85;80.90
75387;DHT22;63966;47.914;22.266;2023-09-18T17:41:00;19.86;80.40
75387;DHT22;63966;47.914;22.266;2023-09-18T17:44:03;19.57;82.43
75387;DHT22;63966;47.914;22.266;2023-09-18T17:47:07;19.40;81.90
75387;DHT22;63966;47.914;22.266;2023-09-18T17:50:10;19.38;81.74
75387;DHT22;63966;47.914;22.266;2023-09-18T17:53:15;19.26;82.82
75387;DHT22;63966;47.914;22.266;2023-09-18T17:56:18;19.31;83.19
75387;DHT22;63966;47.914;22.266;2023-09-18T17:59:22;19.10;82.81
75387;DHT22;63966;47.914;22.266;2023-09-18T18:02:26;19.03;83.06
75387;DHT22;63966;47.914;22.266;2023-09-18T18:05:30;18.81;83.35
75387;DHT22;63966;47.914;22.266;2023-09-18T18:08:34;18.82;83.88
75387;DHT22;63966;47.914;22.266;2023-09-18T18:11:38;18.71;84.48
75387;DHT22;63966;47.914;22.266;2023-09-18T18:14:41;18.55;84.81
75387;DHT22;63966;47.914;22.266;2023-09-18T18:17:45;18.51;85.44
75387;DHT22;63966;47.914;22.266;2023-09-18T18:20:48;18.45;85.27
75387;DHT22;63966;47.914;22.266;2023-09-18T18:23:52;18.48;84.83
75387;DHT22;63966;47.914;22.266;2023-09-18T18:26:55;18.44;84.72
75387;DHT22;63966;47.914;22.266;2023-09-18T18:29:59;18.45;84.50
75387;DHT22;63966;47.914;22.266;2023-09-18T18:33:03;18.48;84.49
75387;DHT22;63966;47.914;22.266;2023-09-18T18:36:07;18.47;84.89
75387;DHT22;63966;47.914;22.266;2023-09-18T18:39:12;18.40;85.07
75387;DHT22;63966;47.914;22.266;2023-09-18T18:42:15;18.38;85.08
75387;DHT22;63966;47.914;22.266;2023-09-18T18:45:19;18.33;85.57
75387;DHT22;63966;47.914;22.266;2023-09-18T18:48:23;18.23;85.25
75387;DHT22;63966;47.914;22.266;2023-09-18T18:51:29;18.28;86.28
75387;DHT22;63966;47.914;22.266;2023-09-18T18:54:33;18.27;86.01
75387;DHT22;63966;47.914;22.266;2023-09-18T18:57:37;18.23;85.32
75387;DHT22;63966;47.914;22.266;2023-09-18T19:00:40;18.24;84.59
75387;DHT22;63966;47.914;22.266;2023-09-18T19:03:45;18.28;85.84
75387;DHT22;63966;47.914;22.266;2023-09-18T19:06:49;18.20;85.95
75387;DHT22;63966;47.914;22.266;2023-09-18T19:09:53;18.11;85.93
75387;DHT22;63966;47.914;22.266;2023-09-18T19:13:02;18.16;85.36
75387;DHT22;63966;47.914;22.266;2023-09-18T19:16:05;18.00;85.68
75387;DHT22;63966;47.914;22.266;2023-09-18T19:19:09;18.00;85.31